createdAt,value
2024-02-13T00:00:11.898Z,72.21
2024-02-13T00:02:41.045Z,71.77
2024-02-13T00:05:09.686Z,71.59
2024-02-13T00:07:39.994Z,71.89
2024-02-13T00:10:11.305Z,71.89
2024-02-13T00:12:40.811Z,70.92
2024-02-13T00:15:10.492Z,72.75
2024-02-13T00:17:37.311Z,72.63
2024-02-13T00:20:09.966Z,72.24
2024-02-13T00:22:37.311Z,72.29
2024-02-13T00:25:04.709Z,72.05
2024-02-13T00:27:34.588Z,72.39
2024-02-13T00:30:05.027Z,73.44
2024-02-13T00:32:33.380Z,72.24
2024-02-13T00:35:00.516Z,72.41
2024-02-13T00:37:27.313Z,73.31
2024-02-13T00:39:55.562Z,71.67
2024-02-13T00:42:22.615Z,72.42
2024-02-13T00:44:51.024Z,71.53
2024-02-13T00:47:19.688Z,71.52
2024-02-13T00:49:46.913Z,70.69
2024-02-13T00:52:13.768Z,71.46
2024-02-13T00:54:40.402Z,71.79
2024-02-13T00:57:07.351Z,71.44
2024-02-13T00:59:34.291Z,72.51
2024-02-13T01:03:36.346Z,74.52
2024-02-13T01:06:04.757Z,72.64
2024-02-13T01:08:31.909Z,72.52
2024-02-13T01:10:58.609Z,71.76
2024-02-13T01:13:25.320Z,72.53
2024-02-13T01:15:52.002Z,71.74
2024-02-13T01:18:19.514Z,72.52
2024-02-13T01:20:46.490Z,72.11
2024-02-13T01:23:13.546Z,72.34
2024-02-13T01:25:40.392Z,73.11
2024-02-13T01:28:08.989Z,73.29
2024-02-13T01:30:36.450Z,72.76
2024-02-13T01:33:03.281Z,72.67
2024-02-13T01:35:30.187Z,73.34
2024-02-13T01:37:57.739Z,73.14
2024-02-13T01:40:24.907Z,73.11
2024-02-13T01:42:51.487Z,72.59
2024-02-13T01:45:18.813Z,73.81
2024-02-13T01:47:46.054Z,73.35
2024-02-13T01:50:19.210Z,72.92
2024-02-13T01:52:47.265Z,73.62
2024-02-13T01:55:16.127Z,75.19
2024-02-13T01:57:43.310Z,74.89
2024-02-13T02:00:14.901Z,74.83
2024-02-13T02:02:48.520Z,73.61
2024-02-13T02:05:15.608Z,74.44
2024-02-13T02:07:43.342Z,74.50
2024-02-13T02:10:10.730Z,74.64
2024-02-13T02:12:38.412Z,74.02
2024-02-13T02:15:05.904Z,74.29
2024-02-13T02:17:34.733Z,73.61
2024-02-13T02:20:01.968Z,73.22
2024-02-13T02:22:28.712Z,73.98
2024-02-13T02:24:56.094Z,73.01
2024-02-13T02:27:23.349Z,73.29
2024-02-13T02:29:50.160Z,73.58
2024-02-13T02:32:17.251Z,74.06
2024-02-13T02:34:43.999Z,74.26
2024-02-13T02:37:10.765Z,72.88
2024-02-13T02:39:38.248Z,73.07
2024-02-13T02:42:05.253Z,73.33
2024-02-13T02:44:32.081Z,72.50
2024-02-13T02:47:01.286Z,72.54
2024-02-13T02:49:28.068Z,71.30
2024-02-13T02:51:54.674Z,71.27
2024-02-13T02:54:21.344Z,72.58
2024-02-13T02:56:48.104Z,72.32
2024-02-13T02:59:15.769Z,72.32
2024-02-13T03:01:42.525Z,72.74
2024-02-13T03:04:11.685Z,72.35
2024-02-13T03:06:41.996Z,72.41
2024-02-13T03:09:09.403Z,71.73
2024-02-13T03:11:37.130Z,72.20
2024-02-13T03:14:05.263Z,72.80
2024-02-13T03:16:36.069Z,71.68
2024-02-13T03:19:09.361Z,71.83
2024-02-13T03:21:39.140Z,71.10
2024-02-13T03:24:06.649Z,71.57
2024-02-13T03:26:33.548Z,71.44
2024-02-13T03:29:00.391Z,71.40
2024-02-13T03:31:27.127Z,71.17
2024-02-13T03:33:53.921Z,72.32
2024-02-13T03:36:21.072Z,72.11
2024-02-13T03:38:50.211Z,70.43
2024-02-13T03:41:17.601Z,71.14
2024-02-13T03:43:45.873Z,70.99
2024-02-13T03:46:12.641Z,72.50
2024-02-13T03:48:39.553Z,71.13
2024-02-13T03:51:07.482Z,70.69
2024-02-13T03:53:35.920Z,71.59
2024-02-13T03:56:05.664Z,71.34
2024-02-13T03:58:32.588Z,71.37
2024-02-13T04:00:59.260Z,71.64
2024-02-13T04:03:28.156Z,72.83
2024-02-13T04:05:57.256Z,73.93
2024-02-13T04:08:24.392Z,73.41
2024-02-13T04:10:51.211Z,73.74
2024-02-13T04:13:17.798Z,71.83
2024-02-13T04:15:44.751Z,71.51
2024-02-13T04:18:11.890Z,71.31
2024-02-13T04:20:41.581Z,72.53
2024-02-13T04:23:08.566Z,71.41
2024-02-13T04:25:36.821Z,72.35
2024-02-13T04:28:04.344Z,71.61
2024-02-13T04:30:32.492Z,71.87
2024-02-13T04:32:59.428Z,72.95
2024-02-13T04:35:26.218Z,73.83
2024-02-13T04:37:53.098Z,73.07
2024-02-13T04:40:20.320Z,73.14
2024-02-13T04:42:49.708Z,73.02
2024-02-13T04:45:16.460Z,72.85
2024-02-13T04:47:43.225Z,73.37
2024-02-13T04:50:12.044Z,72.33
2024-02-13T04:52:40.606Z,73.15
2024-02-13T04:55:08.899Z,72.76
2024-02-13T04:57:35.609Z,73.07
2024-02-13T05:00:07.225Z,72.74
2024-02-13T05:02:43.969Z,72.06
2024-02-13T05:05:29.387Z,72.88
2024-02-13T05:07:56.197Z,72.34
2024-02-13T05:10:22.762Z,71.87
2024-02-13T05:12:49.528Z,72.06
2024-02-13T05:15:18.235Z,71.05
2024-02-13T05:17:45.485Z,71.29
2024-02-13T05:20:13.065Z,71.06
2024-02-13T05:22:39.915Z,71.02
2024-02-13T05:25:08.377Z,71.39
2024-02-13T05:27:35.737Z,70.78
2024-02-13T05:30:06.175Z,70.60
2024-02-13T05:32:34.139Z,69.02
2024-02-13T05:35:01.197Z,68.78
2024-02-13T05:37:28.149Z,71.05
2024-02-13T05:39:57.613Z,70.96
2024-02-13T05:42:24.635Z,70.44
2024-02-13T05:44:51.423Z,69.64
2024-02-13T05:47:18.158Z,70.29
2024-02-13T05:49:47.440Z,69.88
2024-02-13T05:52:14.302Z,70.54
2024-02-13T05:54:43.774Z,70.94
2024-02-13T05:57:10.821Z,70.69
2024-02-13T05:59:37.539Z,69.95
2024-02-13T06:02:05.091Z,70.43
2024-02-13T06:04:31.852Z,71.14
2024-02-13T06:06:59.182Z,72.25
2024-02-13T06:09:26.485Z,73.07
2024-02-13T06:11:56.603Z,73.46
2024-02-13T06:14:23.941Z,73.71
2024-02-13T06:16:50.733Z,72.65
2024-02-13T06:19:17.714Z,72.94
2024-02-13T06:21:44.589Z,74.41
2024-02-13T06:24:11.434Z,73.37
2024-02-13T06:26:38.862Z,73.17
2024-02-13T06:29:08.106Z,73.30
2024-02-13T06:31:35.304Z,73.23
2024-02-13T06:34:02.347Z,71.81
2024-02-13T06:36:29.660Z,71.79
2024-02-13T06:38:57.208Z,71.65
2024-02-13T06:41:24.306Z,71.46
2024-02-13T06:43:51.538Z,71.99
2024-02-13T06:46:18.394Z,70.38
2024-02-13T06:48:47.213Z,69.30
2024-02-13T06:51:14.179Z,71.24
2024-02-13T06:53:41.263Z,71.83
2024-02-13T06:56:08.377Z,70.95
2024-02-13T06:58:35.026Z,71.34
2024-02-13T07:01:04.040Z,72.21
2024-02-13T07:03:32.911Z,71.32
2024-02-13T07:06:01.000Z,71.69
2024-02-13T07:08:28.910Z,72.44
2024-02-13T07:10:57.444Z,72.67
2024-02-13T07:13:24.105Z,72.76
2024-02-13T07:15:50.873Z,72.77
2024-02-13T07:18:18.028Z,72.31
2024-02-13T07:20:44.686Z,71.67
2024-02-13T07:23:11.648Z,71.36
2024-02-13T07:25:38.483Z,71.33
2024-02-13T07:28:05.539Z,71.01
2024-02-13T07:30:32.576Z,70.94
2024-02-13T07:33:00.345Z,71.58
2024-02-13T07:35:27.684Z,69.99
2024-02-13T07:37:54.473Z,70.16
2024-02-13T07:40:21.330Z,70.52
2024-02-13T07:42:48.211Z,70.72
2024-02-13T07:45:15.385Z,70.16
2024-02-13T07:47:43.074Z,70.24
2024-02-13T07:50:11.178Z,70.03
2024-02-13T07:52:38.089Z,70.19
2024-02-13T07:55:05.920Z,68.59
2024-02-13T07:57:34.237Z,69.49
2024-02-13T08:00:01.148Z,69.93
2024-02-13T08:02:29.545Z,68.89
2024-02-13T08:04:57.373Z,69.93
2024-02-13T08:07:29.308Z,68.96
2024-02-13T08:09:56.558Z,68.68
2024-02-13T08:12:23.490Z,67.25
2024-02-13T08:14:50.708Z,67.27
2024-02-13T08:17:17.432Z,67.34
2024-02-13T08:19:44.291Z,68.19
2024-02-13T08:22:11.823Z,68.72
2024-02-13T08:24:38.794Z,67.95
2024-02-13T08:27:07.332Z,68.93
2024-02-13T08:29:34.678Z,67.02
2024-02-13T08:32:04.992Z,67.16
2024-02-13T08:34:31.918Z,66.63
2024-02-13T08:36:58.916Z,66.53
2024-02-13T08:39:25.667Z,66.58
2024-02-13T08:41:52.790Z,65.54
2024-02-13T08:44:20.579Z,65.46
2024-02-13T08:46:47.501Z,65.32
2024-02-13T08:49:15.151Z,64.89
2024-02-13T08:51:42.406Z,64.65
2024-02-13T08:54:13.944Z,65.18
2024-02-13T08:56:41.650Z,64.67
2024-02-13T08:59:12.803Z,63.16
2024-02-13T09:01:39.683Z,63.57
2024-02-13T09:04:06.821Z,63.20
2024-02-13T09:06:35.361Z,63.05
2024-02-13T09:09:03.246Z,61.06
2024-02-13T09:11:32.683Z,62.66
2024-02-13T09:14:01.024Z,61.78
2024-02-13T09:16:28.060Z,60.64
2024-02-13T09:18:57.305Z,58.29
2024-02-13T09:21:25.018Z,59.99
2024-02-13T09:23:53.721Z,60.91
2024-02-13T09:26:21.326Z,60.16
2024-02-13T09:28:49.124Z,60.20
2024-02-13T09:31:17.569Z,61.09
2024-02-13T09:33:44.909Z,60.14
2024-02-13T09:36:15.982Z,60.25
2024-02-13T09:38:43.614Z,59.28
2024-02-13T09:41:12.331Z,57.89
2024-02-13T09:43:44.423Z,59.11
2024-02-13T09:46:16.742Z,58.69
2024-02-13T09:48:49.195Z,58.22
2024-02-13T09:51:19.299Z,58.99
2024-02-13T09:53:51.381Z,56.91
2024-02-13T09:56:19.230Z,56.18
2024-02-13T09:58:49.313Z,55.17
2024-02-13T10:01:16.670Z,56.61
2024-02-13T10:03:44.681Z,55.93
2024-02-13T10:06:12.381Z,55.19
2024-02-13T10:08:41.469Z,54.27
2024-02-13T10:11:10.721Z,51.85
2024-02-13T10:13:45.235Z,50.83
2024-02-13T10:16:25.557Z,49.41
2024-02-13T10:18:53.855Z,50.64
2024-02-13T10:21:28.808Z,50.79
2024-02-13T10:24:12.851Z,50.97
2024-02-13T10:26:39.936Z,49.92
2024-02-13T10:29:08.370Z,50.60
2024-02-13T10:31:40.879Z,50.41
2024-02-13T10:34:10.969Z,50.06
2024-02-13T10:36:40.393Z,50.64
2024-02-13T10:39:10.519Z,50.38
2024-02-13T10:41:41.813Z,49.46
2024-02-13T10:44:14.779Z,48.72
2024-02-13T10:46:43.851Z,47.69
2024-02-13T10:49:31.412Z,48.91
2024-02-13T10:52:00.520Z,47.32
2024-02-13T10:54:29.825Z,47.33
2024-02-13T10:57:00.141Z,47.93
2024-02-13T10:59:29.771Z,50.11
2024-02-13T11:02:01.666Z,50.75
2024-02-13T11:04:29.050Z,49.06
2024-02-13T11:06:56.348Z,50.79
2024-02-13T11:09:23.582Z,50.88
2024-02-13T11:11:53.851Z,49.03
2024-02-13T11:14:25.121Z,50.82
2024-02-13T11:17:00.873Z,50.06
2024-02-13T11:19:45.416Z,50.26
2024-02-13T11:22:17.405Z,51.26
2024-02-13T11:25:02.059Z,51.90
2024-02-13T11:27:30.668Z,50.50
2024-02-13T11:30:03.318Z,49.30
2024-02-13T11:32:39.330Z,48.16
2024-02-13T11:35:11.555Z,48.04
2024-02-13T11:37:38.830Z,49.10
2024-02-13T11:40:09.958Z,48.91
2024-02-13T11:42:36.940Z,47.42
2024-02-13T11:45:07.273Z,48.52
2024-02-13T11:47:34.776Z,49.83
2024-02-13T11:50:02.070Z,48.42
2024-02-13T11:52:29.122Z,47.35
2024-02-13T11:54:56.084Z,48.89
2024-02-13T11:57:26.314Z,48.36
2024-02-13T12:00:05.436Z,47.49
2024-02-13T12:02:34.858Z,48.07
2024-02-13T12:05:01.704Z,48.48
2024-02-13T12:07:29.167Z,47.98
2024-02-13T12:09:56.458Z,47.49
2024-02-13T12:12:25.861Z,50.40
2024-02-13T12:14:54.115Z,47.60
2024-02-13T12:17:22.720Z,49.37
2024-02-13T12:19:50.320Z,48.37
2024-02-13T12:22:18.592Z,49.32
2024-02-13T12:24:47.693Z,48.57
2024-02-13T12:27:16.581Z,49.03
2024-02-13T12:29:47.177Z,50.15
2024-02-13T12:32:18.835Z,49.32
2024-02-13T12:34:50.773Z,48.86
2024-02-13T12:37:20.244Z,48.03
2024-02-13T12:39:51.168Z,50.74
2024-02-13T12:42:19.116Z,45.92
2024-02-13T12:44:48.626Z,47.59
2024-02-13T12:47:18.819Z,48.86
2024-02-13T12:49:46.817Z,47.33
2024-02-13T12:52:19.233Z,47.83
2024-02-13T12:54:47.547Z,48.69
2024-02-13T12:57:15.852Z,48.41
2024-02-13T12:59:44.929Z,48.67
2024-02-13T13:02:15.047Z,48.32
2024-02-13T13:04:42.290Z,47.30
2024-02-13T13:07:09.539Z,46.18
2024-02-13T13:09:37.572Z,47.48
2024-02-13T13:12:07.673Z,47.11
2024-02-13T13:14:36.027Z,46.99
2024-02-13T13:17:03.139Z,48.08
2024-02-13T13:19:32.055Z,47.88
2024-02-13T13:21:59.903Z,47.43
2024-02-13T13:24:28.594Z,48.09
2024-02-13T13:26:56.016Z,47.64
2024-02-13T13:29:23.519Z,47.47
2024-02-13T13:31:52.634Z,47.38
2024-02-13T13:34:25.309Z,48.21
2024-02-13T13:36:54.113Z,46.94
2024-02-13T13:39:22.471Z,47.59
2024-02-13T13:41:51.352Z,47.76
2024-02-13T13:44:19.598Z,46.78
2024-02-13T13:46:47.414Z,46.98
2024-02-13T13:49:19.003Z,48.59
2024-02-13T13:51:46.239Z,47.49
2024-02-13T13:54:13.177Z,47.52
2024-02-13T13:56:42.039Z,47.13
2024-02-13T13:59:09.094Z,48.26
2024-02-13T14:01:37.206Z,48.13
2024-02-13T14:04:06.161Z,48.43
2024-02-13T14:06:33.578Z,48.66
2024-02-13T14:09:00.606Z,47.86
2024-02-13T14:11:27.729Z,47.92
2024-02-13T14:13:54.883Z,47.30
2024-02-13T14:16:21.719Z,47.63
2024-02-13T14:18:50.025Z,47.56
2024-02-13T14:21:17.683Z,48.79
2024-02-13T14:23:45.023Z,48.82
2024-02-13T14:26:11.804Z,48.71
2024-02-13T14:28:39.413Z,48.61
2024-02-13T14:31:07.983Z,49.50
2024-02-13T14:33:36.695Z,48.44
2024-02-13T14:36:04.518Z,48.65
2024-02-13T14:38:33.263Z,48.09
2024-02-13T14:41:02.290Z,49.37
2024-02-13T14:43:29.195Z,49.27
2024-02-13T14:46:00.135Z,48.59
2024-02-13T14:48:27.326Z,48.85
2024-02-13T14:50:54.379Z,48.30
2024-02-13T14:53:22.580Z,47.52
2024-02-13T14:55:49.942Z,48.03
2024-02-13T14:58:26.050Z,49.20
2024-02-13T15:00:58.860Z,47.03
2024-02-13T15:03:26.184Z,48.38
2024-02-13T15:05:54.666Z,48.01
2024-02-13T15:08:25.848Z,48.87
2024-02-13T15:10:53.362Z,48.21
2024-02-13T15:13:21.684Z,48.21
2024-02-13T15:15:52.049Z,46.94
2024-02-13T15:18:20.177Z,47.79
2024-02-13T15:20:49.412Z,48.96
2024-02-13T15:23:17.033Z,48.38
2024-02-13T15:25:44.944Z,48.68
2024-02-13T15:28:11.998Z,48.22
2024-02-13T15:30:39.837Z,47.61
2024-02-13T15:33:07.916Z,47.63
2024-02-13T15:35:43.523Z,47.15
2024-02-13T15:38:29.762Z,47.65
2024-02-13T15:41:23.294Z,48.53
2024-02-13T15:44:09.718Z,48.59
2024-02-13T15:46:55.511Z,49.25
2024-02-13T15:49:24.235Z,49.67
2024-02-13T15:51:55.299Z,49.78
2024-02-13T15:54:22.521Z,49.92
2024-02-13T15:56:50.357Z,49.48
2024-02-13T15:59:20.169Z,49.97
2024-02-13T16:01:47.181Z,50.44
2024-02-13T16:04:16.851Z,49.93
2024-02-13T16:06:44.951Z,49.26
2024-02-13T16:09:13.275Z,48.51
2024-02-13T16:11:40.559Z,48.53
2024-02-13T16:14:07.621Z,48.66
2024-02-13T16:16:34.451Z,48.72
2024-02-13T16:19:01.425Z,48.81
2024-02-13T16:21:28.246Z,48.64
2024-02-13T16:23:55.344Z,48.28
2024-02-13T16:26:24.146Z,48.50
2024-02-13T16:28:51.002Z,48.96
2024-02-13T16:31:22.826Z,49.53
2024-02-13T16:33:52.522Z,50.31
2024-02-13T16:36:22.274Z,50.65
2024-02-13T16:38:49.410Z,51.76
2024-02-13T16:41:17.523Z,51.79
2024-02-13T16:43:52.085Z,51.86
2024-02-13T16:46:21.115Z,52.00
2024-02-13T16:48:50.571Z,52.15
2024-02-13T16:51:22.142Z,51.75
2024-02-13T16:53:48.951Z,52.05
2024-02-13T16:56:18.878Z,51.37
2024-02-13T16:58:46.639Z,51.89
2024-02-13T17:01:16.765Z,51.03
2024-02-13T17:03:49.258Z,51.07
2024-02-13T17:06:16.636Z,51.66
2024-02-13T17:08:43.818Z,51.95
2024-02-13T17:11:10.905Z,53.26
2024-02-13T17:13:38.295Z,54.04
2024-02-13T17:16:08.407Z,55.17
2024-02-13T17:18:35.395Z,55.05
2024-02-13T17:21:02.413Z,55.98
2024-02-13T17:23:29.599Z,55.35
2024-02-13T17:25:57.426Z,55.79
2024-02-13T17:28:24.187Z,55.78
2024-02-13T17:30:52.196Z,54.61
2024-02-13T17:33:19.398Z,53.86
2024-02-13T17:35:46.543Z,53.70
2024-02-13T17:38:14.041Z,54.41
2024-02-13T17:40:40.877Z,53.87
2024-02-13T17:43:07.749Z,53.89
2024-02-13T17:45:34.870Z,54.14
2024-02-13T17:48:01.734Z,53.47
2024-02-13T17:50:28.763Z,54.81
2024-02-13T17:52:55.789Z,54.17
2024-02-13T17:55:24.008Z,54.62
2024-02-13T17:57:50.777Z,54.07
2024-02-13T18:00:24.521Z,55.16
2024-02-13T18:02:52.897Z,54.52
2024-02-13T18:05:20.773Z,54.26
2024-02-13T18:07:47.840Z,53.44
2024-02-13T18:10:15.176Z,53.72
2024-02-13T18:12:44.632Z,53.36
2024-02-13T18:15:11.877Z,53.25
2024-02-13T18:17:38.832Z,54.52
2024-02-13T18:20:06.397Z,55.35
2024-02-13T18:22:33.191Z,54.66
2024-02-13T18:24:59.981Z,54.55
2024-02-13T18:27:26.616Z,55.16
2024-02-13T18:29:54.464Z,56.15
2024-02-13T18:32:22.040Z,56.76
2024-02-13T18:34:49.117Z,57.02
2024-02-13T18:37:17.995Z,57.48
2024-02-13T18:39:47.855Z,57.22
2024-02-13T18:42:14.742Z,57.42
2024-02-13T18:44:41.477Z,57.72
2024-02-13T18:47:13.539Z,58.69
2024-02-13T18:49:40.399Z,58.37
2024-02-13T18:52:08.409Z,57.91
2024-02-13T18:54:36.979Z,57.90
2024-02-13T18:57:04.355Z,57.61
2024-02-13T18:59:31.513Z,57.85
2024-02-13T19:02:01.429Z,57.71
2024-02-13T19:04:28.403Z,57.38
2024-02-13T19:06:56.082Z,56.88
2024-02-13T19:09:23.174Z,56.33
2024-02-13T19:11:54.186Z,56.89
2024-02-13T19:14:24.342Z,56.02
2024-02-13T19:16:52.364Z,55.89
2024-02-13T19:19:19.385Z,55.88
2024-02-13T19:21:47.210Z,55.99
2024-02-13T19:24:14.146Z,56.05
2024-02-13T19:26:40.794Z,56.76
2024-02-13T19:29:07.582Z,57.49
2024-02-13T19:31:35.982Z,58.32
2024-02-13T19:34:03.030Z,58.23
2024-02-13T19:36:34.249Z,59.15
2024-02-13T19:39:01.290Z,58.98
2024-02-13T19:41:28.547Z,59.97
2024-02-13T19:43:58.454Z,59.27
2024-02-13T19:46:25.190Z,58.59
2024-02-13T19:48:53.160Z,59.70
2024-02-13T19:51:20.102Z,59.04
2024-02-13T19:53:46.948Z,59.02
2024-02-13T19:56:16.157Z,59.16
2024-02-13T19:58:43.713Z,58.54
2024-02-13T20:01:12.509Z,58.29
2024-02-13T20:03:40.290Z,58.31
2024-02-13T20:06:08.317Z,57.87
2024-02-13T20:08:37.887Z,57.86
2024-02-13T20:11:05.171Z,59.33
2024-02-13T20:13:37.661Z,58.96
2024-02-13T20:16:05.710Z,57.96
2024-02-13T20:18:36.821Z,58.57
2024-02-13T20:21:05.113Z,59.43
2024-02-13T20:23:36.779Z,57.95
2024-02-13T20:26:05.427Z,58.33
2024-02-13T20:28:34.327Z,59.34
2024-02-13T20:31:01.428Z,60.87
2024-02-13T20:33:32.920Z,62.32
2024-02-13T20:36:01.330Z,62.77
2024-02-13T20:38:29.255Z,62.05
2024-02-13T20:40:59.046Z,61.59
2024-02-13T20:43:28.114Z,62.19
2024-02-13T20:45:55.032Z,62.57
2024-02-13T20:48:22.209Z,62.15
2024-02-13T20:50:49.899Z,61.94
2024-02-13T20:53:18.308Z,61.81
2024-02-13T20:55:45.681Z,60.49
2024-02-13T20:58:13.033Z,60.19
2024-02-13T21:00:41.377Z,60.13
2024-02-13T21:03:08.637Z,59.89
2024-02-13T21:05:37.675Z,59.38
2024-02-13T21:08:05.802Z,59.00
2024-02-13T21:10:33.303Z,59.24
2024-02-13T21:13:00.019Z,60.18
2024-02-13T21:15:26.765Z,60.16
2024-02-13T21:17:53.558Z,59.06
2024-02-13T21:20:28.233Z,59.15
2024-02-13T21:23:14.228Z,59.08
2024-02-13T21:25:42.958Z,58.86
2024-02-13T21:28:09.757Z,59.79
2024-02-13T21:30:36.757Z,60.08
2024-02-13T21:33:04.869Z,61.54
2024-02-13T21:35:31.945Z,61.15
2024-02-13T21:37:58.974Z,61.50
2024-02-13T21:40:26.795Z,59.50
2024-02-13T21:42:53.697Z,60.60
2024-02-13T21:45:21.679Z,60.83
2024-02-13T21:47:48.834Z,61.28
2024-02-13T21:50:16.141Z,60.60
2024-02-13T21:52:43.044Z,61.12
2024-02-13T21:55:10.627Z,61.23
2024-02-13T21:57:37.479Z,59.90
2024-02-13T22:00:07.817Z,60.61
2024-02-13T22:02:35.005Z,59.99
2024-02-13T22:05:01.955Z,61.33
2024-02-13T22:07:28.882Z,62.05
2024-02-13T22:09:57.543Z,63.33
2024-02-13T22:12:24.714Z,64.10
2024-02-13T22:14:51.590Z,63.41
2024-02-13T22:17:18.456Z,62.87
2024-02-13T22:19:45.249Z,61.61
2024-02-13T22:22:12.517Z,63.14
2024-02-13T22:24:39.448Z,62.88
2024-02-13T22:27:06.901Z,62.75
2024-02-13T22:29:34.864Z,63.66
2024-02-13T22:32:02.094Z,62.11
2024-02-13T22:34:29.292Z,63.10
2024-02-13T22:36:56.159Z,62.30
2024-02-13T22:39:22.902Z,62.46
2024-02-13T22:41:49.818Z,62.05
2024-02-13T22:44:19.731Z,62.34
2024-02-13T22:46:46.598Z,61.37
2024-02-13T22:49:13.296Z,61.15
2024-02-13T22:51:43.282Z,62.18
2024-02-13T22:54:11.710Z,61.39
2024-02-13T22:56:38.353Z,62.48
2024-02-13T22:59:05.166Z,62.02
2024-02-13T23:01:35.139Z,62.27
2024-02-13T23:04:05.727Z,63.29
2024-02-13T23:06:33.156Z,62.57
2024-02-13T23:09:12.259Z,62.85
2024-02-13T23:11:39.039Z,62.84
2024-02-13T23:14:05.906Z,63.92
2024-02-13T23:16:33.078Z,64.64
2024-02-13T23:19:00.329Z,64.39
2024-02-13T23:21:27.350Z,65.45
2024-02-13T23:23:54.190Z,63.32
2024-02-13T23:26:20.998Z,63.14
2024-02-13T23:28:52.771Z,63.55
2024-02-13T23:31:25.785Z,63.71
2024-02-13T23:33:54.071Z,62.77
2024-02-13T23:36:21.016Z,62.58
2024-02-13T23:38:47.980Z,62.46
2024-02-13T23:41:15.300Z,61.95
2024-02-13T23:43:42.259Z,62.28
2024-02-13T23:46:09.141Z,61.68
2024-02-13T23:48:37.988Z,61.55
2024-02-13T23:51:05.679Z,62.07
2024-02-13T23:53:32.667Z,62.68
2024-02-13T23:55:59.319Z,62.92
2024-02-13T23:58:26.089Z,62.18
